Time;durP1;ratioP1;P1;durP2;ratioP2;P2;SDS_P1;SDS_P2;PMS_P1;PMS_P2;Temp;Humidity;BMP_temperature;BMP_pressure;BME280_temperature;BME280_humidity;BME280_pressure;Samples;Min_cycle;Max_cycle;Signal;HPM_P1;HPM_P2
2023/03/24 00:00:41;;;;;;;4.75;2.20;;;;;;;;;;5070855;28;20579;-61
2023/03/24 00:03:07;;;;;;;3.33;1.98;;;;;;;;;;5070899;28;20044;-62
2023/03/24 00:05:33;;;;;;;4.13;1.63;;;;;;;;;;5071221;28;20029;-62
2023/03/24 00:08:01;;;;;;;4.32;2.03;;;;;;;;;;5071414;28;20021;-61
2023/03/24 00:10:29;;;;;;;3.97;1.80;;;;;;;;;;5071160;28;20033;-61
2023/03/24 00:12:57;;;;;;;4.93;2.20;;;;;;;;;;5071412;28;20396;-62
2023/03/24 00:15:23;;;;;;;3.95;1.88;;;;;;;;;;5071477;28;20036;-61
2023/03/24 00:17:49;;;;;;;4.32;1.80;;;;;;;;;;5069106;28;20032;-61
2023/03/24 00:20:16;;;;;;;3.95;2.20;;;;;;;;;;5070926;28;20404;-62
2023/03/24 00:22:48;;;;;;;2.65;1.67;;;;;;;;;;5070697;28;20111;-60
2023/03/24 00:25:15;;;;;;;5.35;2.03;;;;;;;;;;5071129;28;20029;-60
2023/03/24 00:27:43;;;;;;;3.15;1.67;;;;;;;;;;5070725;28;20020;-62
2023/03/24 00:30:10;;;;;;;4.93;2.13;;;;;;;;;;5071218;28;20115;-61
2023/03/24 00:32:37;;;;;;;2.35;1.55;;;;;;;;;;5070416;28;20021;-61
2023/03/24 00:35:07;;;;;;;4.25;1.63;;;;;;;;;;5071024;28;20416;-61
2023/03/24 00:37:36;;;;;;;3.20;1.80;;;;;;;;;;5070820;28;20020;-61
2023/03/24 00:40:05;;;;;;;3.88;2.05;;;;;;;;;;5070960;28;20103;-61
2023/03/24 00:42:32;;;;;;;3.00;1.50;;;;;;;;;;5070584;28;20079;-61
2023/03/24 00:44:58;;;;;;;3.85;1.88;;;;;;;;;;5071083;28;20063;-61
2023/03/24 00:47:24;;;;;;;2.67;1.55;;;;;;;;;;5069312;28;20401;-61
2023/03/24 00:49:52;;;;;;;4.03;2.22;;;;;;;;;;5070677;28;20025;-63
2023/03/24 00:52:19;;;;;;;4.88;2.08;;;;;;;;;;5070749;28;20500;-62
2023/03/24 00:54:49;;;;;;;4.30;1.98;;;;;;;;;;5070636;28;20028;-62
2023/03/24 00:57:20;;;;;;;3.42;1.95;;;;;;;;;;5070877;28;20029;-62
2023/03/24 00:59:47;;;;;;;3.20;1.80;;;;;;;;;;5070367;28;20093;-61
2023/03/24 01:02:23;;;;;;;2.50;1.73;;;;;;;;;;5070303;28;20044;-62
2023/03/24 01:04:53;;;;;;;3.92;1.80;;;;;;;;;;5070445;28;20485;-62
2023/03/24 01:07:20;;;;;;;3.13;1.80;;;;;;;;;;5070961;28;20029;-62
2023/03/24 01:09:50;;;;;;;2.33;1.60;;;;;;;;;;5070739;28;20383;-62
2023/03/24 01:12:17;;;;;;;3.92;1.95;;;;;;;;;;5074649;28;20435;-63
2023/03/24 01:14:44;;;;;;;3.50;1.50;;;;;;;;;;5074353;28;20499;-62
2023/03/24 01:17:10;;;;;;;3.15;2.00;;;;;;;;;;5064546;28;20091;-63
2023/03/24 01:19:36;;;;;;;5.43;1.65;;;;;;;;;;5054120;28;20040;-61
2023/03/24 01:22:02;;;;;;;4.00;2.15;;;;;;;;;;5054602;28;20033;-62
2023/03/24 01:24:28;;;;;;;3.97;1.50;;;;;;;;;;5054130;28;20557;-62
2023/03/24 01:26:54;;;;;;;2.67;1.25;;;;;;;;;;5054658;28;20056;-62
2023/03/24 01:29:20;;;;;;;3.05;1.52;;;;;;;;;;5054341;28;20036;-62
2023/03/24 01:31:46;;;;;;;2.70;1.67;;;;;;;;;;5053874;28;20142;-61
2023/03/24 01:34:12;;;;;;;5.05;1.88;;;;;;;;;;5054329;28;20052;-61
2023/03/24 01:36:38;;;;;;;3.63;1.40;;;;;;;;;;5054049;28;20056;-62
2023/03/24 01:39:05;;;;;;;2.38;1.42;;;;;;;;;;5054299;28;20031;-62
2023/03/24 01:41:33;;;;;;;3.55;1.60;;;;;;;;;;5053845;28;20036;-64
2023/03/24 01:43:59;;;;;;;4.25;1.45;;;;;;;;;;5054016;28;20454;-61
2023/03/24 01:46:28;;;;;;;4.63;1.60;;;;;;;;;;5055440;28;20409;-62
2023/03/24 01:48:59;;;;;;;4.15;1.60;;;;;;;;;;5054311;28;20029;-63
2023/03/24 01:51:29;;;;;;;2.75;1.38;;;;;;;;;;5053842;28;20355;-63
2023/03/24 01:54:01;;;;;;;2.90;1.20;;;;;;;;;;5054122;28;20036;-62
2023/03/24 01:56:28;;;;;;;2.92;1.38;;;;;;;;;;5053791;28;20082;-63
2023/03/24 01:59:02;;;;;;;2.70;1.20;;;;;;;;;;5054288;28;20033;-62
2023/03/24 02:01:32;;;;;;;4.03;1.20;;;;;;;;;;5053654;28;20039;-63
2023/03/24 02:04:02;;;;;;;3.15;1.52;;;;;;;;;;5054205;28;20036;-64
2023/03/24 02:06:29;;;;;;;3.25;1.45;;;;;;;;;;5053524;28;20386;-62
2023/03/24 02:08:56;;;;;;;2.08;1.10;;;;;;;;;;5053828;28;20025;-62
2023/03/24 02:11:24;;;;;;;2.85;1.10;;;;;;;;;;5053943;28;20025;-61
2023/03/24 02:13:50;;;;;;;3.30;1.23;;;;;;;;;;5053233;28;20440;-62
2023/03/24 02:16:46;;;;;;;2.95;1.35;;;;;;;;;;5061554;28;20073;-62
2023/03/24 02:19:15;;;;;;;1.55;0.88;;;;;;;;;;5073443;28;20041;-63
2023/03/24 02:21:57;;;;;;;2.00;1.20;;;;;;;;;;5072316;28;20020;-62
2023/03/24 02:24:41;;;;;;;2.53;1.20;;;;;;;;;;5073679;28;20444;-63
2023/03/24 02:27:28;;;;;;;2.97;1.17;;;;;;;;;;5073378;28;20058;-63
2023/03/24 02:30:10;;;;;;;3.90;1.20;;;;;;;;;;5073454;28;20020;-61
2023/03/24 02:32:54;;;;;;;3.92;1.40;;;;;;;;;;5072352;28;20459;-62
2023/03/24 02:35:20;;;;;;;5.72;1.40;;;;;;;;;;5073206;28;20036;-62
2023/03/24 02:37:59;;;;;;;4.13;1.27;;;;;;;;;;5072942;28;20020;-64
2023/03/24 02:40:26;;;;;;;4.07;1.83;;;;;;;;;;5073449;28;20086;-63
2023/03/24 02:42:52;;;;;;;3.45;1.67;;;;;;;;;;5072838;28;20047;-61
2023/03/24 02:45:34;;;;;;;3.17;1.33;;;;;;;;;;5073018;28;20024;-62
2023/03/24 02:48:18;;;;;;;4.30;1.38;;;;;;;;;;5072323;28;20056;-61
2023/03/24 02:50:59;;;;;;;2.88;1.20;;;;;;;;;;5072715;28;20066;-61
2023/03/24 02:53:32;;;;;;;2.30;0.95;;;;;;;;;;5073187;28;20111;-62
2023/03/24 02:56:04;;;;;;;2.47;0.90;;;;;;;;;;5072869;28;20032;-61
2023/03/24 02:58:34;;;;;;;3.50;1.23;;;;;;;;;;5072595;28;20035;-62
2023/03/24 03:01:04;;;;;;;4.15;1.10;;;;;;;;;;5072281;28;20164;-63
2023/03/24 03:03:48;;;;;;;3.70;1.10;;;;;;;;;;5072349;28;20045;-61
2023/03/24 03:06:20;;;;;;;3.75;1.17;;;;;;;;;;5072759;28;20013;-61
2023/03/24 03:08:47;;;;;;;3.50;1.10;;;;;;;;;;5072207;28;20016;-61
2023/03/24 03:11:14;;;;;;;2.90;1.10;;;;;;;;;;5072515;28;20032;-62
2023/03/24 03:13:44;;;;;;;2.22;1.30;;;;;;;;;;5072273;28;20021;-62
2023/03/24 03:16:13;;;;;;;4.10;1.42;;;;;;;;;;5058063;28;20515;-62
2023/03/24 03:18:42;;;;;;;3.72;1.30;;;;;;;;;;5052143;28;20079;-63
2023/03/24 03:21:11;;;;;;;4.88;1.30;;;;;;;;;;5051902;28;20504;-62
2023/03/24 03:23:39;;;;;;;5.47;1.55;;;;;;;;;;5052157;28;20354;-62
2023/03/24 03:26:08;;;;;;;3.17;1.00;;;;;;;;;;5052180;28;20502;-61
2023/03/24 03:28:37;;;;;;;4.22;1.17;;;;;;;;;;5051869;28;20029;-61
2023/03/24 03:31:06;;;;;;;3.53;1.17;;;;;;;;;;5051967;28;20036;-62
2023/03/24 03:33:38;;;;;;;5.20;1.40;;;;;;;;;;5051828;28;20396;-61
2023/03/24 03:36:08;;;;;;;4.47;1.88;;;;;;;;;;5052039;28;20053;-61
2023/03/24 03:38:41;;;;;;;3.80;1.67;;;;;;;;;;5051804;28;20025;-62
2023/03/24 03:41:07;;;;;;;3.97;1.33;;;;;;;;;;5052038;28;20086;-61
2023/03/24 03:43:34;;;;;;;4.35;1.50;;;;;;;;;;5051511;28;20087;-62
2023/03/24 03:46:00;;;;;;;4.82;1.20;;;;;;;;;;5051854;28;20381;-61
2023/03/24 03:48:28;;;;;;;5.07;1.35;;;;;;;;;;5051596;28;20033;-61
2023/03/24 03:50:54;;;;;;;4.68;1.13;;;;;;;;;;5051963;28;20029;-61
2023/03/24 03:53:23;;;;;;;4.75;1.52;;;;;;;;;;5051784;28;20024;-61
2023/03/24 03:55:49;;;;;;;7.15;2.03;;;;;;;;;;5051424;28;20033;-61
2023/03/24 03:58:15;;;;;;;4.80;1.33;;;;;;;;;;5051493;28;20558;-62
2023/03/24 04:00:43;;;;;;;2.60;0.80;;;;;;;;;;5051381;28;20025;-61
2023/03/24 04:03:09;;;;;;;5.57;1.63;;;;;;;;;;5051109;28;20501;-61
2023/03/24 04:05:47;;;;;;;4.97;1.80;;;;;;;;;;5051144;28;20047;-61
2023/03/24 04:08:13;;;;;;;2.40;0.90;;;;;;;;;;5051453;28;20508;-61
2023/03/24 04:10:48;;;;;;;3.47;1.50;;;;;;;;;;5051123;28;20076;-61
2023/03/24 04:13:14;;;;;;;4.05;1.35;;;;;;;;;;5053998;28;20032;-61
2023/03/24 04:15:40;;;;;;;4.07;1.30;;;;;;;;;;5070987;28;20060;-62
2023/03/24 04:18:15;;;;;;;5.93;1.40;;;;;;;;;;5071319;28;20523;-63
2023/03/24 04:21:02;;;;;;;4.47;1.67;;;;;;;;;;5070799;28;20033;-62
2023/03/24 04:23:53;;;;;;;4.38;1.40;;;;;;;;;;5071081;28;20299;-64
2023/03/24 04:26:40;;;;;;;3.53;1.02;;;;;;;;;;5071180;28;20028;-62
2023/03/24 04:29:16;;;;;;;3.65;1.00;;;;;;;;;;5070563;28;20043;-62
2023/03/24 04:31:48;;;;;;;4.90;1.42;;;;;;;;;;5070842;28;20087;-63
2023/03/24 04:34:20;;;;;;;3.92;1.42;;;;;;;;;;5051288;28;20021;-61
2023/03/24 04:36:49;;;;;;;5.15;1.33;;;;;;;;;;5050892;28;20435;-61
2023/03/24 04:39:17;;;;;;;5.50;1.33;;;;;;;;;;5050862;28;20028;-61
2023/03/24 04:41:46;;;;;;;4.10;1.48;;;;;;;;;;5050685;28;20393;-61
2023/03/24 04:44:12;;;;;;;5.65;1.48;;;;;;;;;;5050843;28;20086;-62
2023/03/24 04:46:39;;;;;;;4.80;1.38;;;;;;;;;;5050188;28;20561;-63
2023/03/24 04:49:05;;;;;;;5.93;1.17;;;;;;;;;;5051013;28;20061;-63
2023/03/24 04:51:31;;;;;;;4.75;1.42;;;;;;;;;;5050718;28;20086;-64
2023/03/24 04:53:57;;;;;;;5.35;1.42;;;;;;;;;;5050945;28;20076;-63
2023/03/24 04:56:39;;;;;;;5.15;1.33;;;;;;;;;;5051094;28;20025;-61
2023/03/24 04:59:06;;;;;;;6.35;1.52;;;;;;;;;;5050945;28;20485;-61
2023/03/24 05:01:36;;;;;;;6.32;1.38;;;;;;;;;;5050292;28;20036;-61
2023/03/24 05:04:03;;;;;;;6.30;1.60;;;;;;;;;;5050885;28;20044;-62
2023/03/24 05:06:29;;;;;;;6.25;1.33;;;;;;;;;;5050610;28;20025;-63
2023/03/24 05:08:57;;;;;;;5.05;1.50;;;;;;;;;;5051035;28;20033;-63
2023/03/24 05:11:24;;;;;;;4.97;1.20;;;;;;;;;;5051135;28;20050;-64
2023/03/24 05:13:50;;;;;;;4.05;1.27;;;;;;;;;;5059459;28;20540;-63
2023/03/24 05:16:16;;;;;;;4.30;1.30;;;;;;;;;;5070702;28;20032;-61
2023/03/24 05:18:42;;;;;;;4.60;1.60;;;;;;;;;;5070557;28;20103;-62
2023/03/24 05:21:08;;;;;;;3.35;1.13;;;;;;;;;;5070488;28;20024;-62
2023/03/24 05:23:34;;;;;;;6.22;1.50;;;;;;;;;;5070402;28;20037;-61
2023/03/24 05:26:00;;;;;;;6.45;1.77;;;;;;;;;;5070731;28;20021;-62
2023/03/24 05:28:26;;;;;;;5.43;1.15;;;;;;;;;;5069733;28;20131;-62
2023/03/24 05:30:52;;;;;;;3.33;1.40;;;;;;;;;;5070910;28;20021;-63
2023/03/24 05:33:19;;;;;;;3.78;1.15;;;;;;;;;;5070608;28;20028;-62
2023/03/24 05:35:45;;;;;;;5.65;1.27;;;;;;;;;;5070333;28;20025;-63
2023/03/24 05:38:11;;;;;;;6.28;1.88;;;;;;;;;;5070210;28;20028;-62
2023/03/24 05:40:37;;;;;;;5.05;1.50;;;;;;;;;;5070143;28;20070;-62
2023/03/24 05:43:03;;;;;;;5.53;1.83;;;;;;;;;;5069884;28;20120;-63
2023/03/24 05:45:29;;;;;;;5.22;1.48;;;;;;;;;;5070196;28;20107;-62
2023/03/24 05:47:55;;;;;;;6.35;2.22;;;;;;;;;;5070488;28;20028;-62
2023/03/24 05:50:23;;;;;;;4.05;1.27;;;;;;;;;;5070516;28;20032;-63
2023/03/24 05:52:49;;;;;;;5.72;1.60;;;;;;;;;;5069971;28;20033;-61
2023/03/24 05:55:15;;;;;;;7.15;1.50;;;;;;;;;;5070472;28;20025;-62
2023/03/24 05:57:42;;;;;;;6.72;1.55;;;;;;;;;;5071028;28;20021;-61
2023/03/24 06:00:15;;;;;;;4.68;1.48;;;;;;;;;;5073690;28;20392;-61
2023/03/24 06:02:41;;;;;;;3.28;1.25;;;;;;;;;;5073483;28;20037;-63
2023/03/24 06:05:08;;;;;;;4.03;1.65;;;;;;;;;;5073628;28;20031;-62
2023/03/24 06:07:34;;;;;;;5.50;1.63;;;;;;;;;;5066476;28;20486;-61
2023/03/24 06:10:01;;;;;;;5.38;1.40;;;;;;;;;;5054193;28;20104;-64
2023/03/24 06:12:29;;;;;;;3.83;1.40;;;;;;;;;;5073062;28;20098;-61
2023/03/24 06:14:55;;;;;;;6.22;1.50;;;;;;;;;;5074076;28;20020;-62
2023/03/24 06:17:23;;;;;;;4.65;1.27;;;;;;;;;;5072724;28;20037;-63
2023/03/24 06:19:49;;;;;;;5.00;1.52;;;;;;;;;;5073111;28;20040;-61
2023/03/24 06:22:18;;;;;;;4.00;1.42;;;;;;;;;;5063139;28;20029;-62
2023/03/24 06:24:45;;;;;;;3.88;1.33;;;;;;;;;;5053390;28;20076;-63
2023/03/24 06:27:13;;;;;;;6.20;1.45;;;;;;;;;;5065284;28;20055;-65
2023/03/24 06:29:41;;;;;;;5.00;1.70;;;;;;;;;;5062704;28;20095;-63
2023/03/24 06:32:07;;;;;;;5.20;1.50;;;;;;;;;;5070254;28;20497;-60
2023/03/24 06:34:33;;;;;;;4.82;1.77;;;;;;;;;;5071093;28;20021;-64
2023/03/24 06:36:59;;;;;;;4.47;1.50;;;;;;;;;;5070646;28;20111;-62
2023/03/24 06:39:25;;;;;;;3.63;1.00;;;;;;;;;;5073751;28;20052;-63
2023/03/24 06:41:51;;;;;;;5.60;1.30;;;;;;;;;;5073507;28;20052;-63
2023/03/24 06:44:18;;;;;;;6.80;1.20;;;;;;;;;;5073187;28;20412;-63
2023/03/24 06:46:44;;;;;;;4.28;1.27;;;;;;;;;;5070840;28;20480;-61
2023/03/24 06:49:11;;;;;;;4.13;1.08;;;;;;;;;;5072558;28;20082;-63
2023/03/24 06:51:37;;;;;;;4.18;1.50;;;;;;;;;;5072788;28;20519;-66
2023/03/24 06:54:03;;;;;;;6.75;1.58;;;;;;;;;;5072987;28;20071;-62
2023/03/24 06:56:29;;;;;;;6.00;1.27;;;;;;;;;;5066869;28;20025;-62
2023/03/24 06:58:55;;;;;;;6.00;1.40;;;;;;;;;;5053160;28;20048;-62
2023/03/24 07:01:23;;;;;;;5.95;1.20;;;;;;;;;;5052833;28;20374;-63
2023/03/24 07:03:49;;;;;;;5.68;1.48;;;;;;;;;;5067593;28;20037;-63
2023/03/24 07:06:15;;;;;;;5.20;1.20;;;;;;;;;;5072785;28;20032;-62
2023/03/24 07:08:41;;;;;;;6.13;1.30;;;;;;;;;;5072038;28;20021;-63
2023/03/24 07:11:08;;;;;;;6.45;1.58;;;;;;;;;;5072677;28;20056;-63
2023/03/24 07:13:34;;;;;;;4.35;1.40;;;;;;;;;;5072251;28;20455;-62
2023/03/24 07:16:00;;;;;;;5.72;1.25;;;;;;;;;;5072593;28;20020;-63
2023/03/24 07:18:26;;;;;;;4.25;1.30;;;;;;;;;;5058384;28;20037;-62
2023/03/24 07:20:52;;;;;;;5.05;1.30;;;;;;;;;;5052559;28;20116;-64
2023/03/24 07:23:19;;;;;;;5.50;1.42;;;;;;;;;;5052301;28;20044;-64
2023/03/24 07:25:45;;;;;;;5.20;1.50;;;;;;;;;;5056598;28;20024;-64
2023/03/24 07:28:11;;;;;;;3.75;1.30;;;;;;;;;;5066214;28;20039;-64
2023/03/24 07:30:37;;;;;;;4.57;1.48;;;;;;;;;;5071637;28;20016;-63
2023/03/24 07:33:03;;;;;;;4.85;1.20;;;;;;;;;;5071820;28;20081;-64
2023/03/24 07:35:30;;;;;;;5.03;1.35;;;;;;;;;;5081346;28;20039;-61
2023/03/24 07:38:00;;;;;;;5.85;1.50;;;;;;;;;;5092466;28;20028;-61
2023/03/24 07:40:26;;;;;;;5.95;1.52;;;;;;;;;;5092324;28;20028;-62
2023/03/24 07:42:52;;;;;;;10.93;1.40;;;;;;;;;;5092428;28;20536;-64
2023/03/24 07:45:18;;;;;;;5.10;1.35;;;;;;;;;;5072526;28;20354;-62
2023/03/24 07:47:45;;;;;;;7.60;1.50;;;;;;;;;;5071694;28;20056;-64
2023/03/24 07:50:12;;;;;;;5.47;1.52;;;;;;;;;;5071839;28;20017;-64
2023/03/24 07:52:42;;;;;;;4.28;1.20;;;;;;;;;;5071621;28;20025;-61
2023/03/24 07:55:10;;;;;;;4.65;1.63;;;;;;;;;;5071763;28;20027;-60
2023/03/24 07:57:36;;;;;;;5.43;1.70;;;;;;;;;;5071295;28;20055;-63
2023/03/24 08:00:18;;;;;;;4.13;1.17;;;;;;;;;;5066711;28;20500;-63
2023/03/24 08:02:45;;;;;;;4.13;1.60;;;;;;;;;;5071030;28;20047;-62
2023/03/24 08:05:13;;;;;;;4.72;1.75;;;;;;;;;;5070025;28;20499;-61
2023/03/24 08:07:43;;;;;;;4.97;1.40;;;;;;;;;;5060501;28;20033;-60
2023/03/24 08:10:13;;;;;;;6.65;1.83;;;;;;;;;;5058284;28;20536;-62
2023/03/24 08:12:39;;;;;;;4.95;1.42;;;;;;;;;;5071409;28;20107;-61
2023/03/24 08:15:06;;;;;;;3.63;1.20;;;;;;;;;;5071370;28;20067;-62
2023/03/24 08:17:33;;;;;;;6.97;1.73;;;;;;;;;;5071297;28;20150;-64
2023/03/24 08:19:59;;;;;;;6.15;1.60;;;;;;;;;;5070473;28;20036;-61
2023/03/24 08:22:26;;;;;;;8.38;1.95;;;;;;;;;;5071548;28;20392;-61
2023/03/24 08:24:52;;;;;;;5.75;1.80;;;;;;;;;;5071160;28;20070;-61
2023/03/24 08:27:18;;;;;;;6.45;1.50;;;;;;;;;;5071314;28;20085;-61
2023/03/24 08:29:44;;;;;;;4.28;1.40;;;;;;;;;;5069706;28;20435;-63
2023/03/24 08:32:10;;;;;;;5.25;1.30;;;;;;;;;;5069450;28;20032;-64
2023/03/24 08:34:36;;;;;;;5.45;1.63;;;;;;;;;;5069305;28;20016;-64
2023/03/24 08:37:01;;;;;;;8.40;1.77;;;;;;;;;;5069461;28;20103;-61
2023/03/24 08:39:31;;;;;;;4.15;1.50;;;;;;;;;;5068911;28;20392;-62
2023/03/24 08:41:57;;;;;;;6.55;1.77;;;;;;;;;;5068493;28;20032;-62
2023/03/24 08:44:23;;;;;;;3.15;1.20;;;;;;;;;;5068403;28;20029;-61
2023/03/24 08:46:49;;;;;;;6.72;1.73;;;;;;;;;;5071171;28;20024;-62
2023/03/24 08:49:16;;;;;;;5.47;1.85;;;;;;;;;;5071222;28;20043;-63
2023/03/24 08:51:42;;;;;;;6.97;1.88;;;;;;;;;;5070765;28;20033;-61
2023/03/24 08:54:11;;;;;;;5.43;1.50;;;;;;;;;;5071183;28;20038;-61
2023/03/24 08:56:37;;;;;;;4.63;1.60;;;;;;;;;;5070025;28;20067;-61
2023/03/24 08:59:04;;;;;;;6.72;2.05;;;;;;;;;;5071106;28;20512;-61
2023/03/24 09:01:30;;;;;;;6.40;1.80;;;;;;;;;;5070660;28;20021;-61
2023/03/24 09:03:57;;;;;;;7.88;1.30;;;;;;;;;;5070920;28;20480;-62
2023/03/24 09:06:23;;;;;;;5.13;1.83;;;;;;;;;;5071061;28;20078;-61
2023/03/24 09:08:49;;;;;;;5.65;1.60;;;;;;;;;;5070502;28;20519;-61
2023/03/24 09:11:16;;;;;;;5.68;1.95;;;;;;;;;;5068933;28;20056;-62
2023/03/24 09:13:42;;;;;;;4.88;1.48;;;;;;;;;;5070765;28;20021;-61
2023/03/24 09:16:08;;;;;;;7.53;1.65;;;;;;;;;;5070830;28;20751;-61
2023/03/24 09:18:35;;;;;;;3.95;1.40;;;;;;;;;;5070613;28;20035;-62
2023/03/24 09:21:01;;;;;;;4.93;1.90;;;;;;;;;;5070288;28;20040;-62
2023/03/24 09:23:29;;;;;;;5.25;1.67;;;;;;;;;;5070431;28;20401;-63
2023/03/24 09:25:55;;;;;;;8.75;2.55;;;;;;;;;;5070592;28;20028;-61
2023/03/24 09:28:22;;;;;;;6.88;1.85;;;;;;;;;;5070978;28;20496;-61
2023/03/24 09:30:48;;;;;;;6.20;1.58;;;;;;;;;;5070644;28;20025;-62
2023/03/24 09:33:14;;;;;;;7.35;1.83;;;;;;;;;;5074389;28;20501;-61
2023/03/24 09:35:40;;;;;;;6.05;1.70;;;;;;;;;;5074067;28;20024;-62
2023/03/24 09:38:09;;;;;;;6.43;1.73;;;;;;;;;;5073145;28;20035;-61
2023/03/24 09:40:37;;;;;;;5.50;1.85;;;;;;;;;;5061240;28;20033;-62
2023/03/24 09:43:17;;;;;;;7.68;2.33;;;;;;;;;;5054190;28;20456;-61
2023/03/24 09:45:56;;;;;;;5.28;1.67;;;;;;;;;;5053923;28;20024;-61
2023/03/24 09:48:31;;;;;;;6.00;1.60;;;;;;;;;;5054557;28;20036;-61
2023/03/24 09:50:59;;;;;;;7.78;1.90;;;;;;;;;;5054068;28;20104;-66
2023/03/24 09:53:28;;;;;;;6.80;2.10;;;;;;;;;;5053170;28;20032;-62
2023/03/24 09:55:55;;;;;;;6.90;1.90;;;;;;;;;;5054242;28;20029;-63
2023/03/24 09:58:22;;;;;;;5.97;2.22;;;;;;;;;;5068237;28;20024;-63
2023/03/24 10:00:48;;;;;;;5.53;2.00;;;;;;;;;;5068705;28;20127;-63
2023/03/24 10:03:21;;;;;;;8.85;1.80;;;;;;;;;;5071562;28;20094;-62
2023/03/24 10:05:54;;;;;;;6.45;1.85;;;;;;;;;;5073707;28;20437;-62
2023/03/24 10:08:35;;;;;;;9.88;2.45;;;;;;;;;;5073725;28;20028;-62
2023/03/24 10:11:01;;;;;;;5.22;1.60;;;;;;;;;;5072798;28;20025;-62
2023/03/24 10:13:36;;;;;;;8.45;1.92;;;;;;;;;;5073613;28;20028;-61
2023/03/24 10:16:12;;;;;;;8.75;2.33;;;;;;;;;;5073626;28;20032;-62
2023/03/24 10:19:13;;;;;;;7.03;1.88;;;;;;;;;;5073592;28;20500;-68
2023/03/24 10:21:40;;;;;;;9.63;2.38;;;;;;;;;;5049512;28;20051;-67
2023/03/24 10:24:22;;;;;;;8.52;2.05;;;;;;;;;;5067645;28;20126;-66
2023/03/24 10:26:48;;;;;;;13.23;2.17;;;;;;;;;;5071316;28;20037;-67
2023/03/24 10:29:27;;;;;;;13.55;1.95;;;;;;;;;;5071073;28;20031;-64
2023/03/24 10:31:59;;;;;;;10.00;1.92;;;;;;;;;;5073091;28;20067;-63
2023/03/24 10:34:28;;;;;;;6.38;1.58;;;;;;;;;;5073701;28;20395;-69
2023/03/24 10:36:57;;;;;;;7.68;2.10;;;;;;;;;;5072060;28;20043;-64
2023/03/24 10:39:23;;;;;;;6.30;1.90;;;;;;;;;;5071815;28;20090;-63
2023/03/24 10:41:50;;;;;;;8.07;1.92;;;;;;;;;;5071420;28;20050;-67
2023/03/24 10:44:16;;;;;;;8.57;2.00;;;;;;;;;;5070475;28;20036;-65
2023/03/24 10:46:47;;;;;;;10.18;2.25;;;;;;;;;;5071303;28;20020;-62
2023/03/24 10:49:13;;;;;;;9.23;1.65;;;;;;;;;;5071228;28;20028;-66
2023/03/24 10:51:43;;;;;;;10.27;2.40;;;;;;;;;;5072560;28;20510;-65
2023/03/24 10:54:12;;;;;;;5.45;1.70;;;;;;;;;;5073037;28;20028;-72
2023/03/24 10:56:57;;;;;;;14.30;2.90;;;;;;;;;;5072482;28;20485;-64
2023/03/24 10:59:27;;;;;;;9.82;2.90;;;;;;;;;;5073390;28;20107;-66
2023/03/24 11:02:08;;;;;;;9.25;2.00;;;;;;;;;;5073203;28;20025;-64
2023/03/24 11:04:38;;;;;;;8.52;2.25;;;;;;;;;;5071267;28;20168;-62
2023/03/24 11:07:07;;;;;;;6.18;1.88;;;;;;;;;;5072532;28;20063;-62
2023/03/24 11:09:42;;;;;;;11.48;2.00;;;;;;;;;;5081865;28;20103;-63
2023/03/24 11:12:22;;;;;;;8.98;2.22;;;;;;;;;;5084155;28;20029;-63
2023/03/24 11:14:48;;;;;;;7.13;1.92;;;;;;;;;;5077259;28;20109;-62
2023/03/24 11:17:14;;;;;;;12.25;2.30;;;;;;;;;;5074778;28;20393;-61
2023/03/24 11:19:51;;;;;;;12.30;2.05;;;;;;;;;;5079648;28;20526;-70
2023/03/24 11:22:17;;;;;;;4.22;1.70;;;;;;;;;;5082756;28;20045;-65
2023/03/24 11:24:43;;;;;;;6.57;1.90;;;;;;;;;;5081875;28;20140;-64
2023/03/24 11:27:13;;;;;;;10.48;2.15;;;;;;;;;;5070641;28;20044;-65
2023/03/24 11:29:40;;;;;;;10.23;2.28;;;;;;;;;;5071534;28;20052;-66
2023/03/24 11:32:13;;;;;;;7.95;1.80;;;;;;;;;;5072023;28;20028;-66
2023/03/24 11:34:43;;;;;;;8.80;2.05;;;;;;;;;;5071141;28;20107;-67
2023/03/24 11:37:18;;;;;;;8.48;1.95;;;;;;;;;;5071833;28;20454;-67
2023/03/24 11:39:44;;;;;;;6.97;2.10;;;;;;;;;;5071572;28;20029;-64
2023/03/24 11:42:10;;;;;;;12.52;1.80;;;;;;;;;;5070682;28;20131;-67
2023/03/24 11:44:39;;;;;;;9.02;1.83;;;;;;;;;;5071710;28;20048;-64
2023/03/24 11:47:05;;;;;;;6.03;1.92;;;;;;;;;;5072021;28;20107;-63
2023/03/24 11:49:33;;;;;;;8.20;1.98;;;;;;;;;;5071700;28;20020;-61
2023/03/24 11:52:00;;;;;;;6.03;1.85;;;;;;;;;;5071090;28;20032;-62
2023/03/24 11:54:35;;;;;;;12.20;2.53;;;;;;;;;;5070972;28;20126;-62
2023/03/24 11:57:06;;;;;;;6.22;1.83;;;;;;;;;;5051771;28;20025;-63
2023/03/24 11:59:45;;;;;;;8.07;2.10;;;;;;;;;;5051644;28;20029;-61
2023/03/24 12:02:13;;;;;;;8.38;1.90;;;;;;;;;;5051645;28;20378;-62
2023/03/24 12:04:50;;;;;;;8.23;1.83;;;;;;;;;;5050357;28;20473;-62
2023/03/24 12:07:35;;;;;;;9.98;1.73;;;;;;;;;;5051831;28;20543;-61
2023/03/24 12:10:17;;;;;;;6.80;1.95;;;;;;;;;;5070115;28;20115;-61
2023/03/24 12:13:02;;;;;;;7.47;2.08;;;;;;;;;;5067139;28;20034;-62
2023/03/24 12:15:28;;;;;;;7.78;1.80;;;;;;;;;;5070624;28;20028;-62
2023/03/24 12:18:00;;;;;;;8.60;2.10;;;;;;;;;;5071480;28;20028;-63
2023/03/24 12:20:35;;;;;;;6.50;1.65;;;;;;;;;;5071301;28;20112;-61
2023/03/24 12:23:01;;;;;;;5.13;1.50;;;;;;;;;;5071404;28;20040;-62
2023/03/24 12:25:31;;;;;;;6.97;2.00;;;;;;;;;;5070981;28;20557;-62
2023/03/24 12:28:03;;;;;;;8.98;1.77;;;;;;;;;;5070970;28;20025;-62
2023/03/24 12:30:31;;;;;;;5.88;1.60;;;;;;;;;;5071010;28;20078;-62
2023/03/24 12:33:00;;;;;;;7.55;2.15;;;;;;;;;;5071319;28;20031;-62
2023/03/24 12:35:40;;;;;;;6.60;1.90;;;;;;;;;;5071087;28;20020;-61
2023/03/24 12:38:25;;;;;;;7.07;1.63;;;;;;;;;;5071371;28;20021;-61
2023/03/24 12:41:09;;;;;;;6.07;1.88;;;;;;;;;;5070790;28;20028;-63
2023/03/24 12:43:40;;;;;;;5.28;1.60;;;;;;;;;;5070800;28;20037;-62
2023/03/24 12:46:26;;;;;;;8.63;1.83;;;;;;;;;;5071112;28;20431;-62
2023/03/24 12:49:13;;;;;;;7.35;1.42;;;;;;;;;;5060377;28;20040;-62
2023/03/24 12:51:51;;;;;;;6.30;2.05;;;;;;;;;;5059831;28;20123;-62
2023/03/24 12:54:17;;;;;;;6.82;1.98;;;;;;;;;;5071110;28;20500;-62
2023/03/24 12:56:49;;;;;;;5.88;1.75;;;;;;;;;;5070837;28;20126;-62
2023/03/24 12:59:26;;;;;;;6.85;1.42;;;;;;;;;;5070473;28;20099;-62
2023/03/24 13:02:03;;;;;;;4.65;1.50;;;;;;;;;;5071157;28;20031;-63
2023/03/24 13:04:31;;;;;;;6.70;1.80;;;;;;;;;;5070827;28;20037;-63
2023/03/24 13:07:11;;;;;;;6.05;1.70;;;;;;;;;;5072547;28;20024;-62
2023/03/24 13:09:44;;;;;;;8.95;1.75;;;;;;;;;;5074672;28;20038;-62
2023/03/24 13:12:16;;;;;;;6.10;2.00;;;;;;;;;;5074771;28;20035;-62
2023/03/24 13:14:55;;;;;;;3.92;1.58;;;;;;;;;;5074753;28;20392;-64
2023/03/24 13:17:23;;;;;;;8.30;1.92;;;;;;;;;;5075334;28;20021;-60
2023/03/24 13:19:51;;;;;;;8.02;2.47;;;;;;;;;;5074478;28;20127;-59
2023/03/24 13:22:18;;;;;;;5.38;1.50;;;;;;;;;;5074304;28;20056;-61
2023/03/24 13:24:45;;;;;;;9.02;1.80;;;;;;;;;;5074381;28;20028;-62
2023/03/24 13:27:15;;;;;;;8.55;2.00;;;;;;;;;;5074670;28;20103;-61
2023/03/24 13:29:48;;;;;;;7.13;1.70;;;;;;;;;;5074388;28;20029;-62
2023/03/24 13:32:14;;;;;;;12.15;2.05;;;;;;;;;;5074605;28;20024;-61
2023/03/24 13:34:47;;;;;;;7.38;1.90;;;;;;;;;;5074242;28;20029;-60
2023/03/24 13:37:16;;;;;;;4.50;1.40;;;;;;;;;;5073977;28;20439;-60
2023/03/24 13:39:44;;;;;;;4.53;1.33;;;;;;;;;;5074351;28;20107;-61
2023/03/24 13:42:27;;;;;;;4.32;1.60;;;;;;;;;;5074401;28;20028;-62
2023/03/24 13:44:53;;;;;;;4.68;1.45;;;;;;;;;;5074755;28;20031;-62
2023/03/24 13:47:19;;;;;;;5.18;1.40;;;;;;;;;;5074152;28;20024;-61
2023/03/24 13:49:53;;;;;;;5.70;1.60;;;;;;;;;;5073864;28;20017;-61
2023/03/24 13:52:21;;;;;;;6.30;2.00;;;;;;;;;;5073829;28;20033;-61
2023/03/24 13:54:48;;;;;;;7.50;1.92;;;;;;;;;;5073918;28;20043;-61
2023/03/24 13:57:17;;;;;;;6.68;1.70;;;;;;;;;;5074129;28;20048;-62
2023/03/24 14:00:10;;;;;;;7.30;1.73;;;;;;;;;;5073792;28;20485;-62
2023/03/24 14:02:42;;;;;;;6.60;1.80;;;;;;;;;;5073413;28;20024;-61
2023/03/24 14:05:08;;;;;;;8.35;2.10;;;;;;;;;;5074102;28;20064;-59
2023/03/24 14:07:40;;;;;;;5.57;1.73;;;;;;;;;;5073326;28;20392;-61
2023/03/24 14:10:16;;;;;;;4.20;1.50;;;;;;;;;;5073903;28;20036;-62
2023/03/24 14:12:42;;;;;;;;;;;;;;;;;;5073834;28;20033;-60
2023/03/24 14:15:13;;;;;;;5.03;1.60;;;;;;;;;;5073860;28;19904;-61
2023/03/24 14:17:43;;;;;;;6.80;1.90;;;;;;;;;;5072340;28;20059;-61
2023/03/24 14:20:11;;;;;;;6.88;2.35;;;;;;;;;;5073199;28;20044;-60
2023/03/24 14:22:55;;;;;;;6.20;1.80;;;;;;;;;;5073323;28;20033;-61
2023/03/24 14:25:26;;;;;;;4.75;1.65;;;;;;;;;;5073904;28;20032;-60
2023/03/24 14:27:54;;;;;;;5.57;1.70;;;;;;;;;;5073843;28;20022;-60
2023/03/24 14:30:20;;;;;;;5.38;1.92;;;;;;;;;;5073584;28;20444;-60
2023/03/24 14:32:48;;;;;;;4.75;1.50;;;;;;;;;;5073299;28;20112;-61
2023/03/24 14:35:22;;;;;;;4.68;1.50;;;;;;;;;;5073038;28;20036;-61
2023/03/24 14:38:00;;;;;;;4.72;1.60;;;;;;;;;;5073185;28;20032;-61
2023/03/24 14:40:28;;;;;;;4.72;1.40;;;;;;;;;;5073441;28;20032;-60
2023/03/24 14:42:55;;;;;;;4.03;1.23;;;;;;;;;;5073477;28;20130;-59
2023/03/24 14:45:41;;;;;;;5.13;1.45;;;;;;;;;;5073258;28;20430;-60
2023/03/24 14:48:22;;;;;;;4.05;1.50;;;;;;;;;;5072156;28;20107;-60
2023/03/24 14:50:48;;;;;;;5.07;1.92;;;;;;;;;;5068976;28;20025;-59
2023/03/24 14:53:18;;;;;;;6.97;1.55;;;;;;;;;;5071596;28;20422;-61
2023/03/24 14:55:44;;;;;;;9.68;2.00;;;;;;;;;;5071174;28;20031;-59
2023/03/24 14:58:30;;;;;;;3.50;1.30;;;;;;;;;;5071611;28;20044;-61